LiveATC.Net - Listen to live air traffic control over the Internet!


ICAO: KHQZ  IATA: HQZ   Airport: Mesquite Metro Airport
City: Mesquite   State/Province: Texas
Country: United States   Continent: North America
KHQZ METAR Weather: KHQZ 181250Z 00000KT 10SM CLR 08/08 A3017
KHQZ Flight Activity (FlightAware)
KHQZ Airport Info   (iFlightPlanner)
KHQZ VFR Sectional Chart   (iFlightPlanner) 
KHQZ IFR Low Chart   (iFlightPlanner) 

KHQZ Gnd/Twr
Feed Status: UP   Listeners: 0
Listen in your browser - HTML5 player (in browser, HTML5)
Click here to listen with your own player (launches your MP3 player)
Archive Access: KHQZ Gnd/Twr
FacilityFrequency
Mesquite Ground118.850
Mesquite Tower120.300

NOTICE

Unauthorized use prohibited. See LiveATC.net Terms of Service


Airport/ARTCC Code
Frequency Search
(e.g., 124.400, 128.75)
Site-wide search
 


Browse Feeds
Top 50 Feeds
HF Oceanic Feeds
Coverage Map
Bad Weather Areas

LiveATC FAQ
Offer LiveATC feed
Contact LiveATC.net
Press Inquiries

LiveATC on iPhone
LiveATC on Android

Windows Phone
Windows 8/10

LiveATC Mobile
(Mobile browser)

ATC Audio Archives
Interesting Recordings

LiveATC Forums


Home Page
About LiveATC.net
Make a Donation
Terms of Use
Privacy Policy

Canadian Air Freqs

AIRMETs/SIGMETs

FAA Airport Status
NAS Status
Arrival Demand


Server Software By:
Icecast.org
Liquidsoap